createdAt,value
2023-04-30T00:00:13.438Z,99323.19
2023-04-30T00:05:18.225Z,99331.06
2023-04-30T00:10:21.158Z,99327.84
2023-04-30T00:15:24.098Z,99328.84
2023-04-30T00:20:28.342Z,99332.28
2023-04-30T00:25:31.254Z,99342.75
2023-04-30T00:30:34.146Z,99337.72
2023-04-30T00:35:39.335Z,99343.19
2023-04-30T00:40:43.239Z,99344.78
2023-04-30T00:45:46.173Z,99354.47
2023-04-30T00:50:50.402Z,99354.28
2023-04-30T00:55:54.332Z,99363.38
2023-04-30T01:00:57.468Z,99368.59
2023-04-30T01:06:01.755Z,99372.00
2023-04-30T01:11:17.466Z,99381.66
2023-04-30T01:16:24.439Z,99379.47
2023-04-30T01:21:30.787Z,99381.81
2023-04-30T01:26:50.031Z,99381.63
2023-04-30T01:31:54.777Z,99398.09
2023-04-30T01:37:12.953Z,99399.31
2023-04-30T01:42:21.741Z,99405.16
2023-04-30T01:47:35.163Z,99406.81
2023-04-30T01:52:41.772Z,99414.25
2023-04-30T01:57:58.920Z,99417.81
2023-04-30T02:03:04.023Z,99436.47
2023-04-30T02:08:07.895Z,99446.59
2023-04-30T02:13:10.841Z,99453.00
2023-04-30T02:18:15.093Z,99463.34
2023-04-30T02:23:18.060Z,99467.50
2023-04-30T02:28:20.932Z,99470.84
2023-04-30T02:33:25.304Z,99475.13
2023-04-30T02:38:28.297Z,99483.91
2023-04-30T02:43:31.220Z,99489.75
2023-04-30T02:48:35.825Z,99492.38
2023-04-30T02:53:38.940Z,99490.50
2023-04-30T02:58:42.041Z,99496.50
2023-04-30T03:03:46.367Z,99499.53
2023-04-30T03:08:49.270Z,99511.91
2023-04-30T03:13:52.370Z,99508.94
2023-04-30T03:18:56.662Z,99514.44
2023-04-30T03:23:59.546Z,99527.97
2023-04-30T03:29:02.411Z,99532.38
2023-04-30T03:34:06.644Z,99532.75
2023-04-30T03:39:10.502Z,99536.16
2023-04-30T03:44:16.004Z,99538.22
2023-04-30T03:49:20.419Z,99547.13
2023-04-30T03:54:23.316Z,99552.25
2023-04-30T03:59:26.631Z,99552.00
2023-04-30T04:04:31.645Z,99559.19
2023-04-30T04:09:34.688Z,99557.13
2023-04-30T04:14:39.878Z,99572.44
2023-04-30T04:19:44.157Z,99577.63
2023-04-30T04:24:48.005Z,99581.41
2023-04-30T04:29:57.021Z,99593.97
2023-04-30T04:35:01.592Z,99599.78
2023-04-30T04:40:06.064Z,99592.91
2023-04-30T04:45:10.199Z,99611.53
2023-04-30T04:50:16.246Z,99607.09
2023-04-30T04:55:19.292Z,99609.63
2023-04-30T05:00:23.316Z,99618.97
2023-04-30T05:05:27.602Z,99629.38
2023-04-30T05:10:30.545Z,99632.50
2023-04-30T05:15:33.717Z,99643.75
2023-04-30T05:20:37.980Z,99640.00
2023-04-30T05:25:40.871Z,99651.19
2023-04-30T05:30:43.755Z,99661.88
2023-04-30T05:35:48.066Z,99664.91
2023-04-30T05:40:51.025Z,99659.84
2023-04-30T05:45:54.026Z,99664.75
2023-04-30T05:50:58.328Z,99666.47
2023-04-30T05:56:01.251Z,99670.25
2023-04-30T06:01:05.330Z,99675.22
2023-04-30T06:06:09.940Z,99662.56
2023-04-30T06:11:13.269Z,99671.59
2023-04-30T06:16:16.258Z,99669.94
2023-04-30T06:21:20.581Z,99674.44
2023-04-30T06:26:23.482Z,99677.09
2023-04-30T06:31:26.462Z,99677.47
2023-04-30T06:36:31.492Z,99682.88
2023-04-30T06:41:34.539Z,99676.31
2023-04-30T06:46:43.651Z,99680.31
2023-04-30T06:51:48.224Z,99679.13
2023-04-30T06:56:51.115Z,99678.78
2023-04-30T07:01:54.105Z,99679.78
2023-04-30T07:06:58.423Z,99681.56
2023-04-30T07:12:01.622Z,99691.47
2023-04-30T07:17:04.566Z,99695.13
2023-04-30T07:22:08.867Z,99691.50
2023-04-30T07:27:11.778Z,99692.69
2023-04-30T07:32:15.035Z,99691.06
2023-04-30T07:37:19.352Z,99692.34
2023-04-30T07:42:22.258Z,99697.44
2023-04-30T07:47:25.499Z,99698.09
2023-04-30T07:52:29.788Z,99703.78
2023-04-30T07:57:32.727Z,99703.09
2023-04-30T08:02:37.396Z,99715.84
2023-04-30T08:07:42.147Z,99708.38
2023-04-30T08:12:45.174Z,99704.41
2023-04-30T08:17:48.535Z,99723.03
2023-04-30T08:22:52.952Z,99724.22
2023-04-30T08:27:56.001Z,99721.97
2023-04-30T08:32:59.277Z,99715.88
2023-04-30T08:38:03.626Z,99719.72
2023-04-30T08:43:07.818Z,99715.28
2023-04-30T08:48:14.014Z,99707.19
2023-04-30T08:53:21.572Z,99718.63
2023-04-30T08:58:24.593Z,99717.63
2023-04-30T09:03:28.397Z,99726.81
2023-04-30T09:08:46.983Z,99727.97
2023-04-30T09:13:52.663Z,99732.19
2023-04-30T09:18:56.811Z,99727.06
2023-04-30T09:24:02.828Z,99727.19
2023-04-30T09:29:08.850Z,99725.81
2023-04-30T09:34:12.042Z,99736.56
2023-04-30T09:39:17.607Z,99722.94
2023-04-30T09:44:30.160Z,99719.38
2023-04-30T09:49:33.047Z,99723.63
2023-04-30T09:54:38.259Z,99717.91
2023-04-30T09:59:44.799Z,99704.22
2023-04-30T10:04:55.063Z,99715.25
2023-04-30T10:10:04.914Z,99690.81
2023-04-30T10:15:14.381Z,99698.53
2023-04-30T10:20:20.124Z,99695.22
2023-04-30T10:25:28.165Z,99683.47
2023-04-30T10:30:32.792Z,99677.59
2023-04-30T10:35:44.762Z,99682.84
2023-04-30T10:40:49.807Z,99680.78
2023-04-30T10:45:53.109Z,99673.09
2023-04-30T10:50:58.515Z,99682.44
2023-04-30T10:56:06.903Z,99666.66
2023-04-30T11:01:13.684Z,99672.44
2023-04-30T11:06:20.409Z,99669.84
2023-04-30T11:11:24.860Z,99658.25
2023-04-30T11:16:30.848Z,99655.41
2023-04-30T11:21:33.791Z,99656.91
2023-04-30T11:27:05.886Z,99652.78
2023-04-30T11:32:09.280Z,99654.59
2023-04-30T11:37:14.770Z,99660.28
2023-04-30T11:42:19.834Z,99662.22
2023-04-30T11:47:22.812Z,99655.00
2023-04-30T11:52:26.846Z,99649.56
2023-04-30T11:57:41.778Z,99649.00
2023-04-30T12:02:47.161Z,99642.75
2023-04-30T12:07:52.038Z,99638.28
2023-04-30T12:12:56.324Z,99623.09
2023-04-30T12:18:00.550Z,99633.00
2023-04-30T12:23:03.616Z,99628.84
2023-04-30T12:28:07.967Z,99633.00
2023-04-30T12:33:11.947Z,99635.63
2023-04-30T12:38:18.708Z,99628.19
2023-04-30T12:43:22.976Z,99617.03
2023-04-30T12:48:26.991Z,99615.69
2023-04-30T12:53:30.390Z,99613.00
2023-04-30T12:58:35.355Z,99614.72
2023-04-30T13:03:39.860Z,99606.47
2023-04-30T13:08:57.140Z,99603.31
2023-04-30T13:14:02.499Z,99590.50
2023-04-30T13:19:05.583Z,99591.97
2023-04-30T13:24:08.526Z,99589.63
2023-04-30T13:29:12.972Z,99589.38
2023-04-30T13:34:15.995Z,99576.81
2023-04-30T13:39:19.692Z,99571.63
2023-04-30T13:44:24.277Z,99558.50
2023-04-30T13:49:27.183Z,99569.25
2023-04-30T13:54:30.078Z,99558.44
2023-04-30T13:59:34.727Z,99550.38
2023-04-30T14:04:38.154Z,99550.91
2023-04-30T14:09:41.106Z,99553.09
2023-04-30T14:14:45.560Z,99536.94
2023-04-30T14:19:48.463Z,99540.03
2023-04-30T14:24:51.557Z,99543.91
2023-04-30T14:29:56.218Z,99537.88
2023-04-30T14:34:59.373Z,99534.22
2023-04-30T14:40:02.234Z,99530.19
2023-04-30T14:45:08.163Z,99526.03
2023-04-30T14:50:11.526Z,99523.44
2023-04-30T14:55:14.597Z,99519.25
2023-04-30T15:00:19.150Z,99518.56
2023-04-30T15:05:22.239Z,99518.22
2023-04-30T15:10:25.159Z,99516.97
2023-04-30T15:15:29.764Z,99515.56
2023-04-30T15:20:32.857Z,99515.69
2023-04-30T15:25:35.876Z,99513.81
2023-04-30T15:30:40.204Z,99500.81
2023-04-30T15:35:43.086Z,99510.16
2023-04-30T15:40:45.992Z,99508.94
2023-04-30T15:45:50.282Z,99517.09
2023-04-30T15:50:53.187Z,99524.59
2023-04-30T15:55:57.162Z,99498.94
2023-04-30T16:01:01.975Z,99497.06
2023-04-30T16:06:05.112Z,99498.34
2023-04-30T16:11:08.179Z,99493.00
2023-04-30T16:16:12.428Z,99492.31
2023-04-30T16:21:15.317Z,99485.09
2023-04-30T16:26:18.968Z,99488.25
2023-04-30T16:31:23.406Z,99485.78
2023-04-30T16:36:28.045Z,99484.47
2023-04-30T16:41:31.072Z,99476.81
2023-04-30T16:46:36.153Z,99484.50
2023-04-30T16:51:39.191Z,99476.44
2023-04-30T16:56:42.104Z,99476.13
2023-04-30T17:01:46.736Z,99466.97
2023-04-30T17:06:49.894Z,99475.84
2023-04-30T17:11:52.861Z,99471.81
2023-04-30T17:16:57.415Z,99479.16
2023-04-30T17:22:00.357Z,99476.69
2023-04-30T17:27:05.589Z,99488.09
2023-04-30T17:32:11.074Z,99481.34
2023-04-30T17:37:13.973Z,99482.00
2023-04-30T17:42:17.937Z,99483.41
2023-04-30T17:47:22.967Z,99483.03
2023-04-30T17:52:26.173Z,99482.75
2023-04-30T17:57:29.189Z,99484.94
2023-04-30T18:02:33.549Z,99488.38
2023-04-30T18:07:36.672Z,99489.00
2023-04-30T18:12:39.778Z,99494.34
2023-04-30T18:17:44.073Z,99490.06
2023-04-30T18:22:46.935Z,99495.38
2023-04-30T18:27:49.886Z,99495.44
2023-04-30T18:32:54.129Z,99498.97
2023-04-30T18:37:57.522Z,99498.28
2023-04-30T18:43:00.457Z,99503.16
2023-04-30T18:48:05.206Z,99499.63
2023-04-30T18:53:08.185Z,99508.50
2023-04-30T18:58:11.102Z,99519.84
2023-04-30T19:03:15.525Z,99517.84
2023-04-30T19:08:18.475Z,99518.47
2023-04-30T19:13:21.531Z,99519.88
2023-04-30T19:18:25.813Z,99514.19
2023-04-30T19:23:30.219Z,99518.03
2023-04-30T19:28:33.234Z,99515.31
2023-04-30T19:33:39.527Z,99509.31
2023-04-30T19:38:42.903Z,99510.09
2023-04-30T19:43:49.141Z,99514.44
2023-04-30T19:48:53.770Z,99516.81
2023-04-30T19:53:58.974Z,99525.50
2023-04-30T19:59:01.850Z,99524.84
2023-04-30T20:04:06.934Z,99526.59
2023-04-30T20:09:10.003Z,99529.41
2023-04-30T20:14:12.921Z,99524.59
2023-04-30T20:19:17.142Z,99530.16
2023-04-30T20:24:21.624Z,99521.78
2023-04-30T20:29:24.592Z,99521.69
2023-04-30T20:34:29.103Z,99516.25
2023-04-30T20:39:32.111Z,99511.50
2023-04-30T20:44:35.070Z,99506.00
2023-04-30T20:49:39.570Z,99516.16
2023-04-30T20:54:42.849Z,99517.53
2023-04-30T20:59:45.845Z,99513.50
2023-04-30T21:04:50.144Z,99508.22
2023-04-30T21:09:53.246Z,99505.59
2023-04-30T21:14:56.409Z,99507.72
2023-04-30T21:20:00.958Z,99514.81
2023-04-30T21:25:03.889Z,99507.81
2023-04-30T21:30:08.392Z,99508.38
2023-04-30T21:35:12.784Z,99510.09
2023-04-30T21:40:15.781Z,99511.25
2023-04-30T21:45:19.783Z,99503.25
2023-04-30T21:50:24.538Z,99504.31
2023-04-30T21:55:27.734Z,99499.31
2023-04-30T22:00:30.683Z,99497.81
2023-04-30T22:05:34.975Z,99498.28
2023-04-30T22:10:37.893Z,99499.16
2023-04-30T22:15:48.266Z,99500.38
2023-04-30T22:20:53.827Z,99501.03
2023-04-30T22:25:56.701Z,99491.50
2023-04-30T22:31:00.007Z,99480.06
2023-04-30T22:36:05.151Z,99471.66
2023-04-30T22:41:08.549Z,99470.00
2023-04-30T22:46:11.694Z,99475.66
2023-04-30T22:51:16.068Z,99460.38
2023-04-30T22:56:18.997Z,99459.31
2023-04-30T23:01:22.008Z,99459.88
2023-04-30T23:06:27.412Z,99458.28
2023-04-30T23:11:30.418Z,99451.97
2023-04-30T23:16:33.494Z,99450.22
2023-04-30T23:21:37.811Z,99448.66
2023-04-30T23:26:41.360Z,99456.44
2023-04-30T23:31:44.257Z,99449.03
2023-04-30T23:36:48.567Z,99440.91
2023-04-30T23:41:52.156Z,99440.44
2023-04-30T23:46:55.958Z,99430.25
2023-04-30T23:52:00.301Z,99426.19
2023-04-30T23:57:03.324Z,99424.59
